الصفحة الرئيسية
METAR-TAF:

METAR-TAF

مطار :

هونيارا, جوادالكانال, جزر سولومون

دائرة عرض: 09-25S, خط طول: 160-03E, ارتفاع: 8 متر

مراقبة الطقس الحالي

تاريخ ووقت الإصدار 1ساعة و 5 دقيقة قبل الساعة 21:00UTC
ريح 3 عقدة من الجنوب/الجنوب الشرقي
درجة الحرارة 26°درجة مئوية
الرطوبة 89%
ضغط 1014 hPa
الرؤية 10 كم أو أكثر
غيوم قليلة على ارتفاع 1600 قدم

METAR: AGGH 252100Z 16003KT 9999 FEW016 26/24 Q1014

زمن: 09:05 (22:05 UTC)

توقعات

تاريخ ووقت الإصدار 4ساعات و 50 دقيقة قبل الساعة 17:15UTC
التوقعات صالحة من25 الساعة 18 UTC إلى 26 الساعة 18 UTC
ريح 10 عقدة من الشمال/الشمال الشرقي
الرؤية: 1012 متر
غيوم متفرقة على ارتفاع 1800 قدم
غيوم متفرقة على ارتفاع 3000 قدم

TAF: AGGH 251715Z 2518/2618 02010KT 9999 SCT018 SCT030 T 25 26 30 31 Q 1012 1014 1014 1012

أرصاد الطقس والتوقعات من أكثر من 4000 مطار (تقارير الطقس للمطار METAR والتنبؤ بالطقس بالمطارTAF).

المحطات المتاحة هي النقط الصفراء والحمراء على الخريطة.

حرك المؤشر فوق النقطة لمعرفة اسم المحطة.

ثم انقر لمعرفة أرصاد وتوقعات الطقس.

لتغيير الخارطة: اضغط على الأزرار الخضراء مع رمز الصليب الأسود للتكبير. على الزر الأخضر مع شرطة للتصغير، أو على الأسهم الخضراء للخرائط المجاورة.


METAR-TAF: